sensor_id;sensor_type;location;lat;lon;timestamp;temperature;humidity
13848;DHT22;6994;49.752;6.094;2022-08-26T00:00:58;20.00;98.70
13848;DHT22;6994;49.752;6.094;2022-08-26T00:03:25;20.00;98.30
13848;DHT22;6994;49.752;6.094;2022-08-26T00:05:53;20.00;98.40
13848;DHT22;6994;49.752;6.094;2022-08-26T00:08:20;19.90;98.60
13848;DHT22;6994;49.752;6.094;2022-08-26T00:10:47;19.90;99.30
13848;DHT22;6994;49.752;6.094;2022-08-26T00:13:14;20.10;99.30
13848;DHT22;6994;49.752;6.094;2022-08-26T00:15:42;19.90;99.10
13848;DHT22;6994;49.752;6.094;2022-08-26T00:18:09;19.80;99.00
13848;DHT22;6994;49.752;6.094;2022-08-26T00:20:37;19.70;99.20
13848;DHT22;6994;49.752;6.094;2022-08-26T00:23:04;19.80;99.80
13848;DHT22;6994;49.752;6.094;2022-08-26T00:25:31;19.70;99.50
13848;DHT22;6994;49.752;6.094;2022-08-26T00:27:58;19.60;99.50
13848;DHT22;6994;49.752;6.094;2022-08-26T00:30:26;19.40;99.70
13848;DHT22;6994;49.752;6.094;2022-08-26T00:32:53;19.30;99.90
13848;DHT22;6994;49.752;6.094;2022-08-26T00:35:20;19.20;99.90
13848;DHT22;6994;49.752;6.094;2022-08-26T00:37:47;19.20;99.90
13848;DHT22;6994;49.752;6.094;2022-08-26T00:40:20;19.40;99.90
13848;DHT22;6994;49.752;6.094;2022-08-26T00:42:43;19.40;99.90
13848;DHT22;6994;49.752;6.094;2022-08-26T00:45:11;19.30;99.90
13848;DHT22;6994;49.752;6.094;2022-08-26T00:47:42;19.30;99.90
13848;DHT22;6994;49.752;6.094;2022-08-26T00:50:06;19.20;99.90
13848;DHT22;6994;49.752;6.094;2022-08-26T00:52:33;19.20;99.90
13848;DHT22;6994;49.752;6.094;2022-08-26T00:55:08;19.20;99.90
13848;DHT22;6994;49.752;6.094;2022-08-26T00:57:33;19.20;99.90
13848;DHT22;6994;49.752;6.094;2022-08-26T01:00:01;19.20;99.90
13848;DHT22;6994;49.752;6.094;2022-08-26T01:02:28;19.10;99.90
13848;DHT22;6994;49.752;6.094;2022-08-26T01:04:58;19.10;99.90
13848;DHT22;6994;49.752;6.094;2022-08-26T01:07:26;19.00;99.90
13848;DHT22;6994;49.752;6.094;2022-08-26T01:09:52;19.30;99.90
13848;DHT22;6994;49.752;6.094;2022-08-26T01:12:20;19.20;99.90
13848;DHT22;6994;49.752;6.094;2022-08-26T01:14:47;19.20;99.90
13848;DHT22;6994;49.752;6.094;2022-08-26T01:17:14;19.20;99.90
13848;DHT22;6994;49.752;6.094;2022-08-26T01:19:51;19.40;99.90
13848;DHT22;6994;49.752;6.094;2022-08-26T01:22:27;19.30;99.90
13848;DHT22;6994;49.752;6.094;2022-08-26T01:24:48;19.20;99.90
13848;DHT22;6994;49.752;6.094;2022-08-26T01:27:16;19.40;99.90
13848;DHT22;6994;49.752;6.094;2022-08-26T01:29:43;19.30;99.90
13848;DHT22;6994;49.752;6.094;2022-08-26T01:32:10;19.40;99.90
13848;DHT22;6994;49.752;6.094;2022-08-26T01:34:37;19.40;99.90
13848;DHT22;6994;49.752;6.094;2022-08-26T01:37:12;19.40;99.90
13848;DHT22;6994;49.752;6.094;2022-08-26T01:39:38;19.30;99.90
13848;DHT22;6994;49.752;6.094;2022-08-26T01:42:06;19.30;99.90
13848;DHT22;6994;49.752;6.094;2022-08-26T01:44:46;19.30;99.90
13848;DHT22;6994;49.752;6.094;2022-08-26T01:47:12;19.30;99.90
13848;DHT22;6994;49.752;6.094;2022-08-26T01:49:39;19.40;99.90
13848;DHT22;6994;49.752;6.094;2022-08-26T01:52:06;19.40;99.90
13848;DHT22;6994;49.752;6.094;2022-08-26T01:54:34;19.70;99.90
13848;DHT22;6994;49.752;6.094;2022-08-26T01:57:01;19.90;99.90
13848;DHT22;6994;49.752;6.094;2022-08-26T01:59:28;19.90;99.90
13848;DHT22;6994;49.752;6.094;2022-08-26T02:01:55;20.00;99.90
13848;DHT22;6994;49.752;6.094;2022-08-26T02:04:32;20.00;99.90
13848;DHT22;6994;49.752;6.094;2022-08-26T02:07:01;20.20;99.90
13848;DHT22;6994;49.752;6.094;2022-08-26T02:09:26;20.10;99.90
13848;DHT22;6994;49.752;6.094;2022-08-26T02:11:54;20.10;99.90
13848;DHT22;6994;49.752;6.094;2022-08-26T02:14:22;20.10;99.90
13848;DHT22;6994;49.752;6.094;2022-08-26T02:16:49;20.00;99.90
13848;DHT22;6994;49.752;6.094;2022-08-26T02:19:17;20.00;99.90
13848;DHT22;6994;49.752;6.094;2022-08-26T02:21:43;20.00;99.90
13848;DHT22;6994;49.752;6.094;2022-08-26T02:24:11;20.00;99.90
13848;DHT22;6994;49.752;6.094;2022-08-26T02:26:37;20.00;99.90
13848;DHT22;6994;49.752;6.094;2022-08-26T02:29:06;20.00;99.90
13848;DHT22;6994;49.752;6.094;2022-08-26T02:31:32;19.90;99.90
13848;DHT22;6994;49.752;6.094;2022-08-26T02:34:09;19.90;99.90
13848;DHT22;6994;49.752;6.094;2022-08-26T02:36:35;20.10;99.90
13848;DHT22;6994;49.752;6.094;2022-08-26T02:39:03;20.10;99.90
13848;DHT22;6994;49.752;6.094;2022-08-26T02:41:30;20.10;99.90
13848;DHT22;6994;49.752;6.094;2022-08-26T02:43:57;20.10;99.90
13848;DHT22;6994;49.752;6.094;2022-08-26T02:46:24;20.30;99.90
13848;DHT22;6994;49.752;6.094;2022-08-26T02:48:51;20.30;99.90
13848;DHT22;6994;49.752;6.094;2022-08-26T02:51:19;20.30;99.90
13848;DHT22;6994;49.752;6.094;2022-08-26T02:53:46;20.20;99.90
13848;DHT22;6994;49.752;6.094;2022-08-26T02:56:13;20.20;99.90
13848;DHT22;6994;49.752;6.094;2022-08-26T02:58:40;20.20;99.90
13848;DHT22;6994;49.752;6.094;2022-08-26T03:01:17;20.20;99.90
13848;DHT22;6994;49.752;6.094;2022-08-26T03:03:35;20.20;99.90
13848;DHT22;6994;49.752;6.094;2022-08-26T03:06:03;20.20;99.90
13848;DHT22;6994;49.752;6.094;2022-08-26T03:08:30;20.20;99.90
13848;DHT22;6994;49.752;6.094;2022-08-26T03:10:57;20.20;99.90
13848;DHT22;6994;49.752;6.094;2022-08-26T03:13:25;20.70;99.90
13848;DHT22;6994;49.752;6.094;2022-08-26T03:15:53;20.80;99.90
13848;DHT22;6994;49.752;6.094;2022-08-26T03:18:20;20.80;99.90
13848;DHT22;6994;49.752;6.094;2022-08-26T03:20:47;20.80;99.90
13848;DHT22;6994;49.752;6.094;2022-08-26T03:23:15;20.70;99.90
13848;DHT22;6994;49.752;6.094;2022-08-26T03:25:47;20.90;99.90
13848;DHT22;6994;49.752;6.094;2022-08-26T03:28:10;21.00;99.90
13848;DHT22;6994;49.752;6.094;2022-08-26T03:30:37;20.90;99.90
13848;DHT22;6994;49.752;6.094;2022-08-26T03:33:08;20.90;99.90
13848;DHT22;6994;49.752;6.094;2022-08-26T03:35:35;20.90;99.90
13848;DHT22;6994;49.752;6.094;2022-08-26T03:38:03;20.90;99.90
13848;DHT22;6994;49.752;6.094;2022-08-26T03:40:30;20.90;99.90
13848;DHT22;6994;49.752;6.094;2022-08-26T03:42:58;20.90;99.90
13848;DHT22;6994;49.752;6.094;2022-08-26T03:45:25;20.90;99.90
13848;DHT22;6994;49.752;6.094;2022-08-26T03:47:52;20.90;99.90
13848;DHT22;6994;49.752;6.094;2022-08-26T03:50:21;21.20;99.90
13848;DHT22;6994;49.752;6.094;2022-08-26T03:52:48;21.20;99.90
13848;DHT22;6994;49.752;6.094;2022-08-26T03:55:15;21.20;99.90
13848;DHT22;6994;49.752;6.094;2022-08-26T03:57:42;21.50;99.90
13848;DHT22;6994;49.752;6.094;2022-08-26T04:00:11;21.50;99.90
13848;DHT22;6994;49.752;6.094;2022-08-26T04:02:37;21.50;99.90
13848;DHT22;6994;49.752;6.094;2022-08-26T04:05:04;21.40;99.90
13848;DHT22;6994;49.752;6.094;2022-08-26T04:07:31;21.40;99.90
13848;DHT22;6994;49.752;6.094;2022-08-26T04:09:59;21.40;99.90
13848;DHT22;6994;49.752;6.094;2022-08-26T04:12:27;21.60;99.90
13848;DHT22;6994;49.752;6.094;2022-08-26T04:14:55;21.60;99.90
13848;DHT22;6994;49.752;6.094;2022-08-26T04:17:22;21.60;99.90
13848;DHT22;6994;49.752;6.094;2022-08-26T04:19:49;21.60;99.90
13848;DHT22;6994;49.752;6.094;2022-08-26T04:22:16;21.80;99.90
13848;DHT22;6994;49.752;6.094;2022-08-26T04:24:43;21.70;99.90
13848;DHT22;6994;49.752;6.094;2022-08-26T04:27:11;21.70;99.90
13848;DHT22;6994;49.752;6.094;2022-08-26T04:29:39;21.60;99.90
13848;DHT22;6994;49.752;6.094;2022-08-26T04:32:06;21.50;99.90
13848;DHT22;6994;49.752;6.094;2022-08-26T04:34:33;21.50;99.90
13848;DHT22;6994;49.752;6.094;2022-08-26T04:37:00;21.40;99.90
13848;DHT22;6994;49.752;6.094;2022-08-26T04:39:28;21.40;99.90
13848;DHT22;6994;49.752;6.094;2022-08-26T04:41:56;21.30;99.90
13848;DHT22;6994;49.752;6.094;2022-08-26T04:44:24;21.40;99.90
13848;DHT22;6994;49.752;6.094;2022-08-26T04:46:50;21.40;99.90
13848;DHT22;6994;49.752;6.094;2022-08-26T04:49:17;21.40;99.90
13848;DHT22;6994;49.752;6.094;2022-08-26T04:51:44;21.40;99.90
13848;DHT22;6994;49.752;6.094;2022-08-26T04:54:11;21.40;99.90
13848;DHT22;6994;49.752;6.094;2022-08-26T04:56:41;21.40;99.90
13848;DHT22;6994;49.752;6.094;2022-08-26T04:59:07;21.30;99.90
13848;DHT22;6994;49.752;6.094;2022-08-26T05:01:36;21.30;99.90
13848;DHT22;6994;49.752;6.094;2022-08-26T05:04:03;21.30;99.90
13848;DHT22;6994;49.752;6.094;2022-08-26T05:06:30;21.30;99.90
13848;DHT22;6994;49.752;6.094;2022-08-26T05:08:57;21.30;99.90
13848;DHT22;6994;49.752;6.094;2022-08-26T05:11:25;21.30;99.90
13848;DHT22;6994;49.752;6.094;2022-08-26T05:13:52;21.40;99.90
13848;DHT22;6994;49.752;6.094;2022-08-26T05:16:20;21.70;99.90
13848;DHT22;6994;49.752;6.094;2022-08-26T05:18:48;21.80;99.90
13848;DHT22;6994;49.752;6.094;2022-08-26T05:21:16;21.80;99.90
13848;DHT22;6994;49.752;6.094;2022-08-26T05:23:42;21.70;99.90
13848;DHT22;6994;49.752;6.094;2022-08-26T05:26:09;21.70;99.90
13848;DHT22;6994;49.752;6.094;2022-08-26T05:28:37;21.80;99.90
13848;DHT22;6994;49.752;6.094;2022-08-26T05:31:16;21.80;99.90
13848;DHT22;6994;49.752;6.094;2022-08-26T05:33:39;21.80;99.90
13848;DHT22;6994;49.752;6.094;2022-08-26T05:36:10;21.80;99.90
13848;DHT22;6994;49.752;6.094;2022-08-26T05:38:34;22.10;99.90
13848;DHT22;6994;49.752;6.094;2022-08-26T05:41:02;22.10;99.90
13848;DHT22;6994;49.752;6.094;2022-08-26T05:43:29;22.10;99.90
13848;DHT22;6994;49.752;6.094;2022-08-26T05:46:04;22.30;99.90
13848;DHT22;6994;49.752;6.094;2022-08-26T05:48:24;22.30;99.90
13848;DHT22;6994;49.752;6.094;2022-08-26T05:50:51;22.60;99.90
13848;DHT22;6994;49.752;6.094;2022-08-26T05:53:19;22.60;99.90
13848;DHT22;6994;49.752;6.094;2022-08-26T05:55:48;22.50;99.90
13848;DHT22;6994;49.752;6.094;2022-08-26T05:58:13;22.30;99.90
13848;DHT22;6994;49.752;6.094;2022-08-26T06:00:40;22.20;99.90
13848;DHT22;6994;49.752;6.094;2022-08-26T06:03:08;22.30;99.90
13848;DHT22;6994;49.752;6.094;2022-08-26T06:05:38;22.30;99.90
13848;DHT22;6994;49.752;6.094;2022-08-26T06:08:06;22.30;99.90
13848;DHT22;6994;49.752;6.094;2022-08-26T06:10:41;22.30;99.90
13848;DHT22;6994;49.752;6.094;2022-08-26T06:13:02;22.30;99.90
13848;DHT22;6994;49.752;6.094;2022-08-26T06:15:30;22.30;99.90
13848;DHT22;6994;49.752;6.094;2022-08-26T06:17:57;22.30;99.90
13848;DHT22;6994;49.752;6.094;2022-08-26T06:20:24;22.30;99.90
13848;DHT22;6994;49.752;6.094;2022-08-26T06:22:52;22.50;99.90
13848;DHT22;6994;49.752;6.094;2022-08-26T06:25:38;22.50;99.90
13848;DHT22;6994;49.752;6.094;2022-08-26T06:28:05;22.60;99.90
13848;DHT22;6994;49.752;6.094;2022-08-26T06:30:33;22.70;99.90
13848;DHT22;6994;49.752;6.094;2022-08-26T06:32:59;22.80;99.90
13848;DHT22;6994;49.752;6.094;2022-08-26T06:35:26;22.80;99.90
13848;DHT22;6994;49.752;6.094;2022-08-26T06:37:54;22.80;99.90
13848;DHT22;6994;49.752;6.094;2022-08-26T06:40:21;22.80;99.90
13848;DHT22;6994;49.752;6.094;2022-08-26T06:42:49;23.20;99.90
13848;DHT22;6994;49.752;6.094;2022-08-26T06:45:16;23.20;99.90
13848;DHT22;6994;49.752;6.094;2022-08-26T06:47:43;23.20;99.90
13848;DHT22;6994;49.752;6.094;2022-08-26T06:50:11;23.20;99.90
13848;DHT22;6994;49.752;6.094;2022-08-26T06:52:40;23.10;99.90
13848;DHT22;6994;49.752;6.094;2022-08-26T06:55:05;23.10;99.90
13848;DHT22;6994;49.752;6.094;2022-08-26T06:57:32;23.10;99.90
13848;DHT22;6994;49.752;6.094;2022-08-26T06:59:59;23.10;99.90
13848;DHT22;6994;49.752;6.094;2022-08-26T07:02:27;23.10;99.90
13848;DHT22;6994;49.752;6.094;2022-08-26T07:04:54;23.00;99.90
13848;DHT22;6994;49.752;6.094;2022-08-26T07:07:22;23.00;99.90
13848;DHT22;6994;49.752;6.094;2022-08-26T07:09:50;23.10;99.90
13848;DHT22;6994;49.752;6.094;2022-08-26T07:12:17;23.00;99.90
13848;DHT22;6994;49.752;6.094;2022-08-26T07:14:44;23.10;99.90
13848;DHT22;6994;49.752;6.094;2022-08-26T07:17:11;23.10;99.90
13848;DHT22;6994;49.752;6.094;2022-08-26T07:19:39;23.10;99.90
13848;DHT22;6994;49.752;6.094;2022-08-26T07:22:06;23.20;99.90
13848;DHT22;6994;49.752;6.094;2022-08-26T07:24:34;23.20;99.90
13848;DHT22;6994;49.752;6.094;2022-08-26T07:27:01;23.20;99.90
13848;DHT22;6994;49.752;6.094;2022-08-26T07:29:28;23.30;99.90
13848;DHT22;6994;49.752;6.094;2022-08-26T07:31:55;23.60;99.90
13848;DHT22;6994;49.752;6.094;2022-08-26T07:34:23;23.60;99.90
13848;DHT22;6994;49.752;6.094;2022-08-26T07:36:50;23.60;99.90
13848;DHT22;6994;49.752;6.094;2022-08-26T07:39:17;23.60;99.90
13848;DHT22;6994;49.752;6.094;2022-08-26T07:41:44;23.70;99.90
13848;DHT22;6994;49.752;6.094;2022-08-26T07:44:12;23.70;99.90
13848;DHT22;6994;49.752;6.094;2022-08-26T07:46:40;23.70;99.90
13848;DHT22;6994;49.752;6.094;2022-08-26T07:49:07;23.70;99.90
13848;DHT22;6994;49.752;6.094;2022-08-26T07:51:34;23.70;99.90
13848;DHT22;6994;49.752;6.094;2022-08-26T07:54:01;24.10;99.90
13848;DHT22;6994;49.752;6.094;2022-08-26T07:56:28;24.50;99.90
13848;DHT22;6994;49.752;6.094;2022-08-26T07:58:56;24.60;99.90
13848;DHT22;6994;49.752;6.094;2022-08-26T08:01:24;24.60;99.90
13848;DHT22;6994;49.752;6.094;2022-08-26T08:03:50;24.50;99.90
13848;DHT22;6994;49.752;6.094;2022-08-26T08:06:21;24.40;99.90
13848;DHT22;6994;49.752;6.094;2022-08-26T08:08:47;24.30;99.90
13848;DHT22;6994;49.752;6.094;2022-08-26T08:11:15;24.20;99.90
13848;DHT22;6994;49.752;6.094;2022-08-26T08:13:42;24.10;99.90
13848;DHT22;6994;49.752;6.094;2022-08-26T08:16:09;24.10;99.90
13848;DHT22;6994;49.752;6.094;2022-08-26T08:18:37;24.00;99.90
13848;DHT22;6994;49.752;6.094;2022-08-26T08:21:04;24.00;99.90
13848;DHT22;6994;49.752;6.094;2022-08-26T08:23:31;24.00;99.90
13848;DHT22;6994;49.752;6.094;2022-08-26T08:25:59;24.00;99.90
13848;DHT22;6994;49.752;6.094;2022-08-26T08:28:26;24.10;99.90
13848;DHT22;6994;49.752;6.094;2022-08-26T08:30:53;24.10;99.90
13848;DHT22;6994;49.752;6.094;2022-08-26T08:33:20;24.20;99.90
13848;DHT22;6994;49.752;6.094;2022-08-26T08:35:47;24.20;99.90
13848;DHT22;6994;49.752;6.094;2022-08-26T08:38:15;24.20;99.90
13848;DHT22;6994;49.752;6.094;2022-08-26T08:40:43;24.10;99.90
13848;DHT22;6994;49.752;6.094;2022-08-26T08:43:10;24.10;99.90
13848;DHT22;6994;49.752;6.094;2022-08-26T08:45:38;24.30;99.90
13848;DHT22;6994;49.752;6.094;2022-08-26T08:48:22;24.30;99.90
13848;DHT22;6994;49.752;6.094;2022-08-26T08:50:49;24.60;99.90
13848;DHT22;6994;49.752;6.094;2022-08-26T08:53:36;24.60;99.90
13848;DHT22;6994;49.752;6.094;2022-08-26T09:01:03;24.60;99.90
13848;DHT22;6994;49.752;6.094;2022-08-26T09:03:47;24.60;99.90
13848;DHT22;6994;49.752;6.094;2022-08-26T09:06:11;24.60;99.90
13848;DHT22;6994;49.752;6.094;2022-08-26T09:08:38;24.60;99.90
13848;DHT22;6994;49.752;6.094;2022-08-26T09:11:06;24.60;99.90
13848;DHT22;6994;49.752;6.094;2022-08-26T09:13:33;24.60;99.90
13848;DHT22;6994;49.752;6.094;2022-08-26T09:16:14;24.80;99.90
13848;DHT22;6994;49.752;6.094;2022-08-26T09:21:16;25.10;99.90
13848;DHT22;6994;49.752;6.094;2022-08-26T09:23:42;25.10;99.90
13848;DHT22;6994;49.752;6.094;2022-08-26T09:26:19;25.00;99.90
13848;DHT22;6994;49.752;6.094;2022-08-26T09:28:46;25.00;99.90
13848;DHT22;6994;49.752;6.094;2022-08-26T09:31:22;24.90;99.90
13848;DHT22;6994;49.752;6.094;2022-08-26T09:34:02;25.10;99.90
13848;DHT22;6994;49.752;6.094;2022-08-26T09:36:20;25.10;99.90
13848;DHT22;6994;49.752;6.094;2022-08-26T09:38:46;25.00;99.90
13848;DHT22;6994;49.752;6.094;2022-08-26T09:41:21;25.00;99.90
13848;DHT22;6994;49.752;6.094;2022-08-26T09:44:12;25.00;99.90
13848;DHT22;6994;49.752;6.094;2022-08-26T09:46:45;25.00;99.90
13848;DHT22;6994;49.752;6.094;2022-08-26T09:49:24;25.00;99.90
13848;DHT22;6994;49.752;6.094;2022-08-26T09:52:02;25.00;99.90
13848;DHT22;6994;49.752;6.094;2022-08-26T09:54:24;25.30;99.90
13848;DHT22;6994;49.752;6.094;2022-08-26T09:56:51;25.30;99.90
13848;DHT22;6994;49.752;6.094;2022-08-26T09:59:30;25.30;99.90
13848;DHT22;6994;49.752;6.094;2022-08-26T10:02:13;25.30;99.90
13848;DHT22;6994;49.752;6.094;2022-08-26T10:04:24;25.20;99.90
13848;DHT22;6994;49.752;6.094;2022-08-26T10:06:55;25.20;99.90
13848;DHT22;6994;49.752;6.094;2022-08-26T10:09:22;25.10;99.90
13848;DHT22;6994;49.752;6.094;2022-08-26T10:11:54;25.20;99.90
13848;DHT22;6994;49.752;6.094;2022-08-26T10:17:10;25.20;99.90
13848;DHT22;6994;49.752;6.094;2022-08-26T10:19:37;25.60;99.90
13848;DHT22;6994;49.752;6.094;2022-08-26T10:24:38;25.80;99.90
13848;DHT22;6994;49.752;6.094;2022-08-26T10:27:13;25.80;99.90
13848;DHT22;6994;49.752;6.094;2022-08-26T10:29:38;25.80;99.90
13848;DHT22;6994;49.752;6.094;2022-08-26T10:32:23;26.10;99.90
13848;DHT22;6994;49.752;6.094;2022-08-26T10:34:38;26.10;99.90
13848;DHT22;6994;49.752;6.094;2022-08-26T10:37:06;26.60;99.90
13848;DHT22;6994;49.752;6.094;2022-08-26T10:39:53;27.60;99.90
13848;DHT22;6994;49.752;6.094;2022-08-26T10:42:28;27.50;99.40
13848;DHT22;6994;49.752;6.094;2022-08-26T10:44:53;27.70;98.90
13848;DHT22;6994;49.752;6.094;2022-08-26T10:47:27;27.50;98.80
13848;DHT22;6994;49.752;6.094;2022-08-26T10:49:52;27.40;99.00
13848;DHT22;6994;49.752;6.094;2022-08-26T10:57:55;27.30;99.10
13848;DHT22;6994;49.752;6.094;2022-08-26T11:00:23;27.20;99.20
13848;DHT22;6994;49.752;6.094;2022-08-26T11:08:49;26.90;99.50
13848;DHT22;6994;49.752;6.094;2022-08-26T11:11:41;26.80;99.50
13848;DHT22;6994;49.752;6.094;2022-08-26T11:16:47;27.00;99.20
13848;DHT22;6994;49.752;6.094;2022-08-26T11:22:08;26.90;99.20
13848;DHT22;6994;49.752;6.094;2022-08-26T11:25:18;26.80;98.80
13848;DHT22;6994;49.752;6.094;2022-08-26T11:27:06;26.50;99.10
13848;DHT22;6994;49.752;6.094;2022-08-26T11:30:04;26.50;99.10
13848;DHT22;6994;49.752;6.094;2022-08-26T11:35:05;26.30;99.20
13848;DHT22;6994;49.752;6.094;2022-08-26T11:37:31;26.20;99.20
13848;DHT22;6994;49.752;6.094;2022-08-26T11:39:56;26.00;99.90
13848;DHT22;6994;49.752;6.094;2022-08-26T11:42:41;26.00;99.90
13848;DHT22;6994;49.752;6.094;2022-08-26T11:45:15;26.00;99.90
13848;DHT22;6994;49.752;6.094;2022-08-26T11:47:39;26.00;99.90
13848;DHT22;6994;49.752;6.094;2022-08-26T11:50:11;26.20;99.90
13848;DHT22;6994;49.752;6.094;2022-08-26T11:52:37;26.30;99.90
13848;DHT22;6994;49.752;6.094;2022-08-26T11:55:09;26.30;99.90
13848;DHT22;6994;49.752;6.094;2022-08-26T11:57:33;26.60;99.50
13848;DHT22;6994;49.752;6.094;2022-08-26T11:59:59;26.80;99.50
13848;DHT22;6994;49.752;6.094;2022-08-26T12:02:26;27.00;98.90
13848;DHT22;6994;49.752;6.094;2022-08-26T12:04:53;27.00;98.70
13848;DHT22;6994;49.752;6.094;2022-08-26T12:07:25;27.00;98.60
13848;DHT22;6994;49.752;6.094;2022-08-26T12:09:55;26.90;98.60
13848;DHT22;6994;49.752;6.094;2022-08-26T12:12:23;26.80;98.80
13848;DHT22;6994;49.752;6.094;2022-08-26T12:15:03;26.80;98.50
13848;DHT22;6994;49.752;6.094;2022-08-26T12:17:18;26.80;98.40
13848;DHT22;6994;49.752;6.094;2022-08-26T12:19:45;26.80;98.40
13848;DHT22;6994;49.752;6.094;2022-08-26T12:22:26;26.80;98.40
13848;DHT22;6994;49.752;6.094;2022-08-26T12:24:53;26.80;98.30
13848;DHT22;6994;49.752;6.094;2022-08-26T12:27:29;26.90;98.40
13848;DHT22;6994;49.752;6.094;2022-08-26T12:32:34;27.30;97.90
13848;DHT22;6994;49.752;6.094;2022-08-26T12:35:02;27.60;97.20
13848;DHT22;6994;49.752;6.094;2022-08-26T12:37:29;28.20;96.20
13848;DHT22;6994;49.752;6.094;2022-08-26T12:40:04;28.90;95.40
13848;DHT22;6994;49.752;6.094;2022-08-26T12:42:38;29.10;94.90
13848;DHT22;6994;49.752;6.094;2022-08-26T12:45:00;29.30;94.70
13848;DHT22;6994;49.752;6.094;2022-08-26T12:50:00;29.50;94.30
13848;DHT22;6994;49.752;6.094;2022-08-26T12:52:27;29.50;93.80
13848;DHT22;6994;49.752;6.094;2022-08-26T12:55:21;29.30;93.80
13848;DHT22;6994;49.752;6.094;2022-08-26T12:57:33;29.10;93.90
13848;DHT22;6994;49.752;6.094;2022-08-26T13:00:22;28.70;94.10
13848;DHT22;6994;49.752;6.094;2022-08-26T13:02:49;28.70;94.10
13848;DHT22;6994;49.752;6.094;2022-08-26T13:05:23;28.50;94.30
13848;DHT22;6994;49.752;6.094;2022-08-26T13:08:11;28.60;94.70
13848;DHT22;6994;49.752;6.094;2022-08-26T13:10:37;29.60;93.50
13848;DHT22;6994;49.752;6.094;2022-08-26T13:13:03;29.60;93.50
13848;DHT22;6994;49.752;6.094;2022-08-26T13:15:30;29.80;92.50
13848;DHT22;6994;49.752;6.094;2022-08-26T13:17:58;30.10;91.70
13848;DHT22;6994;49.752;6.094;2022-08-26T13:20:25;30.10;91.70
13848;DHT22;6994;49.752;6.094;2022-08-26T13:22:52;29.90;91.90
13848;DHT22;6994;49.752;6.094;2022-08-26T13:25:19;29.90;91.70
13848;DHT22;6994;49.752;6.094;2022-08-26T13:27:47;29.90;91.70
13848;DHT22;6994;49.752;6.094;2022-08-26T13:30:14;29.90;91.90
13848;DHT22;6994;49.752;6.094;2022-08-26T13:32:41;30.50;91.40
13848;DHT22;6994;49.752;6.094;2022-08-26T13:35:08;30.70;90.90
13848;DHT22;6994;49.752;6.094;2022-08-26T13:37:36;30.80;90.30
13848;DHT22;6994;49.752;6.094;2022-08-26T13:40:03;30.80;90.60
13848;DHT22;6994;49.752;6.094;2022-08-26T13:42:30;30.60;90.10
13848;DHT22;6994;49.752;6.094;2022-08-26T13:44:57;30.30;90.30
13848;DHT22;6994;49.752;6.094;2022-08-26T13:47:24;29.90;90.40
13848;DHT22;6994;49.752;6.094;2022-08-26T13:49:52;29.60;90.70
13848;DHT22;6994;49.752;6.094;2022-08-26T13:52:19;29.20;91.10
13848;DHT22;6994;49.752;6.094;2022-08-26T13:54:46;28.80;91.90
13848;DHT22;6994;49.752;6.094;2022-08-26T13:57:13;28.40;92.30
13848;DHT22;6994;49.752;6.094;2022-08-26T13:59:40;28.20;92.60
13848;DHT22;6994;49.752;6.094;2022-08-26T14:02:08;27.90;93.10
13848;DHT22;6994;49.752;6.094;2022-08-26T14:04:35;27.60;93.60
13848;DHT22;6994;49.752;6.094;2022-08-26T14:07:02;27.30;93.90
13848;DHT22;6994;49.752;6.094;2022-08-26T14:09:29;27.20;94.20
13848;DHT22;6994;49.752;6.094;2022-08-26T14:11:56;27.00;94.50
13848;DHT22;6994;49.752;6.094;2022-08-26T14:14:24;26.90;94.70
13848;DHT22;6994;49.752;6.094;2022-08-26T14:16:51;26.80;95.00
13848;DHT22;6994;49.752;6.094;2022-08-26T14:19:18;26.70;95.20
13848;DHT22;6994;49.752;6.094;2022-08-26T14:21:45;26.80;95.20
13848;DHT22;6994;49.752;6.094;2022-08-26T14:24:13;26.60;95.40
13848;DHT22;6994;49.752;6.094;2022-08-26T14:26:41;26.50;95.70
13848;DHT22;6994;49.752;6.094;2022-08-26T14:29:09;26.40;95.90
13848;DHT22;6994;49.752;6.094;2022-08-26T14:31:37;26.20;96.00
13848;DHT22;6994;49.752;6.094;2022-08-26T14:34:05;25.90;96.20
13848;DHT22;6994;49.752;6.094;2022-08-26T14:36:32;25.90;96.20
13848;DHT22;6994;49.752;6.094;2022-08-26T14:39:04;25.60;96.70
13848;DHT22;6994;49.752;6.094;2022-08-26T14:41:30;25.30;97.20
13848;DHT22;6994;49.752;6.094;2022-08-26T14:43:59;25.00;98.00
13848;DHT22;6994;49.752;6.094;2022-08-26T14:46:27;24.90;98.30
13848;DHT22;6994;49.752;6.094;2022-08-26T14:48:56;24.80;98.20
13848;DHT22;6994;49.752;6.094;2022-08-26T14:51:23;24.80;98.60
13848;DHT22;6994;49.752;6.094;2022-08-26T14:53:50;24.70;98.90
13848;DHT22;6994;49.752;6.094;2022-08-26T14:56:36;24.60;99.10
13848;DHT22;6994;49.752;6.094;2022-08-26T14:59:03;24.90;99.30
13848;DHT22;6994;49.752;6.094;2022-08-26T15:01:31;24.90;99.30
13848;DHT22;6994;49.752;6.094;2022-08-26T15:03:59;24.90;99.40
13848;DHT22;6994;49.752;6.094;2022-08-26T15:06:27;24.80;99.30
13848;DHT22;6994;49.752;6.094;2022-08-26T15:08:54;24.70;99.30
13848;DHT22;6994;49.752;6.094;2022-08-26T15:11:21;24.60;99.50
13848;DHT22;6994;49.752;6.094;2022-08-26T15:13:48;24.40;99.60
13848;DHT22;6994;49.752;6.094;2022-08-26T15:16:15;24.30;99.90
13848;DHT22;6994;49.752;6.094;2022-08-26T15:18:43;24.40;99.90
13848;DHT22;6994;49.752;6.094;2022-08-26T15:21:10;24.40;99.90
13848;DHT22;6994;49.752;6.094;2022-08-26T15:23:37;24.50;99.90
13848;DHT22;6994;49.752;6.094;2022-08-26T15:26:08;24.50;99.80
13848;DHT22;6994;49.752;6.094;2022-08-26T15:28:31;24.40;99.90
13848;DHT22;6994;49.752;6.094;2022-08-26T15:30:59;24.40;99.90
13848;DHT22;6994;49.752;6.094;2022-08-26T15:33:27;24.30;99.90
13848;DHT22;6994;49.752;6.094;2022-08-26T15:35:57;24.30;99.90
13848;DHT22;6994;49.752;6.094;2022-08-26T15:38:22;24.30;99.90
13848;DHT22;6994;49.752;6.094;2022-08-26T15:40:49;24.20;99.90
13848;DHT22;6994;49.752;6.094;2022-08-26T15:43:16;24.20;99.90
13848;DHT22;6994;49.752;6.094;2022-08-26T15:45:43;24.30;99.90
13848;DHT22;6994;49.752;6.094;2022-08-26T15:48:11;24.20;99.90
13848;DHT22;6994;49.752;6.094;2022-08-26T15:50:48;24.30;99.90
13848;DHT22;6994;49.752;6.094;2022-08-26T15:53:05;24.40;99.90
13848;DHT22;6994;49.752;6.094;2022-08-26T15:55:32;24.40;99.80
13848;DHT22;6994;49.752;6.094;2022-08-26T15:57:59;24.50;99.70
13848;DHT22;6994;49.752;6.094;2022-08-26T16:00:27;24.50;99.50
13848;DHT22;6994;49.752;6.094;2022-08-26T16:02:54;24.60;99.30
13848;DHT22;6994;49.752;6.094;2022-08-26T16:05:22;24.60;99.20
13848;DHT22;6994;49.752;6.094;2022-08-26T16:07:50;24.60;99.10
13848;DHT22;6994;49.752;6.094;2022-08-26T16:10:17;24.60;99.10
13848;DHT22;6994;49.752;6.094;2022-08-26T16:12:44;24.60;99.20
13848;DHT22;6994;49.752;6.094;2022-08-26T16:15:11;24.60;99.10
13848;DHT22;6994;49.752;6.094;2022-08-26T16:17:39;24.60;99.20
13848;DHT22;6994;49.752;6.094;2022-08-26T16:20:06;24.60;99.20
13848;DHT22;6994;49.752;6.094;2022-08-26T16:22:33;24.60;99.30
13848;DHT22;6994;49.752;6.094;2022-08-26T16:25:01;24.60;99.20
13848;DHT22;6994;49.752;6.094;2022-08-26T16:27:28;24.60;99.20
13848;DHT22;6994;49.752;6.094;2022-08-26T16:29:56;24.60;99.20